Logs | Peter Reuderink, Woerden, HOL - JO22kc
Paging Controls
Log ID Date UTC KHz ID Location S/P ITU Region GSQ LSB USB Sec. Fmt. Power KM Miles Deg
2499633 2024-06-11 1900 16804.5 004122100 Shanghai Radio CHN as PM01sc 8908 5535 50
2499634 2024-06-11 1824 16804.5 004123100 Guangzhou Radio CHN as OL63rd 9175 5701 61
2499627 2024-06-11 0754 16804.5 002070810 Varna Radio BUL eu KN33vb 1979 1229 111
2499632 2024-06-11 0630 16804.5 003669997 COMMSTA Miami FL USA na EL95to 7476 4645 282
2499613 2024-06-11 0123 8414.5 003669993 CAMSPAC Honolulu HI HWA oc BL01wk 11672 7252 343
2499630 2024-06-10 2237 16804.5 002711000 Istanbul Radio TUR as KN40jx 2192 1362 114
2499629 2024-06-10 2152 16804.5 002640579 MRCC CONSTANTA ROU eu KN44he 1957 1216 107
2499631 2024-06-10 2145 16804.5 003669995 COMMSTA Portsmouth VA USA na FM16xr 6300 3914 288
2499628 2024-06-10 2107 16804.5 002371000 Olympia Radio GRC eu KM07ro 2065 1283 134
2499623 2024-06-09 0408 12577 003669995 COMMSTA Portsmouth VA USA na FM16xr 6300 3914 288
2499614 2024-06-09 0226 8414.5 003669997 COMMSTA Miami FL USA na EL95to 7476 4645 282
2499622 2024-06-08 2220 12577 003669991 COMMSTA Boston MA USA na FN41rp 5583 3469 289
2499590 2024-06-07 2111 2187.5 002470002 Palermo Radio SCY eu JM68ne 1675 1040 154
2499615 2024-06-07 2022 8414.5 004123100 Guangzhou Radio CHN as OL63rd 9175 5701 61
2499626 2024-06-07 1849 12577 004123100 Guangzhou Radio CHN as OL63rd 9175 5701 61
2499598 2024-06-07 0229 2187.5 002570700 Bodoe Radio NOR eu JP77eg 1764 1096 13
2499587 2024-06-07 0126 2187.5 002320024 Stornoway Radio SCT eu IO68vl 995 618 319
2499610 2024-06-07 0051 8414.5 002570000 Public Correspondence NOR eu
2499619 2024-06-07 0044 12577 002241026 Las Palmas Radio CNR af IL27es 3196 1986 220
2499579 2024-06-07 0005 2187.5 002311000 Torshavn Radio FRO eu IP61ox 1301 808 332
2499592 2024-06-06 2358 2187.5 002470122 Cagliari Radio SAR eu JM49nf 1468 912 165
2499576 2024-06-06 2330 2187.5 002275200 CROSS Jobourg FRA eu IN99bq 544 338 243
2499611 2024-06-06 2326 8414.5 002570300 Rogaland Radio NOR eu JO28tp 729 453 3
2499577 2024-06-06 2320 2187.5 002275300 CROSS Corsen FRA eu IN78ll 811 504 244
2499584 2024-06-06 2225 2187.5 002320011 Solent Radio ENG eu IO90xs 372 231 248
2499578 2024-06-06 2223 2187.5 002301000 Mariehamm Radio FIN eu JP90xc 1285 799 40
2499591 2024-06-06 2200 2187.5 002470119 Ancona Radio ITA eu JN63sp 1139 708 142
2499583 2024-06-06 2137 2187.5 002320010 Dover Radio ENG eu JO01pd 269 167 248
2499601 2024-06-06 2118 2187.5 002711000 Istanbul Radio TUR as KN40jx 2192 1362 114
2499593 2024-06-06 2107 2187.5 002470123 Civitavecchia Radio ITA eu JN52vc 1228 763 152
2499595 2024-06-06 2102 2187.5 002470135 Trieste Radio ITA eu JN65vq 965 600 134
2499603 2024-06-06 2003 2187.5 002734417 Kaliningrad Radio KAL eu KO04ir 1086 675 68
2499624 2024-06-06 0537 12577 003669997 COMMSTA Miami FL USA na EL95to 7476 4645 282
2499580 2024-06-06 0424 2187.5 002320001 Shetland Radio (Lerwick) SHE eu IP90kd 967 601 339
2499612 2024-06-06 0105 8414.5 002711000 Istanbul Radio TUR as KN40jx 2192 1362 114
2499605 2024-06-05 2221 8414.5 002091000 Cyprus Radio CYP as KM65pb 5000 2938 1826 118
2499618 2024-06-05 2107 12577 002241024 Valencia Radio ESP eu IM98wr 1537 955 196
2499616 2024-06-05 1911 8414.5 005030001 Charleville / Wiluna Radio WE AUS oc PG30gp 14666 9113 85
2499625 2024-06-05 1907 12577 004122100 Shanghai Radio CHN as PM01sc 8908 5535 50
2499569 2024-06-05 0515 2187.5 002050480 Oostende Radio BEL eu JO11ne 1000 158 98 230
2499617 2024-06-05 0433 12577 002241022 Coruna Radio ESP eu IN53si 1389 863 230
2499608 2024-06-05 0414 8414.5 002241026 Las Palmas Radio CNR af IL27es 3196 1986 220
2499586 2024-06-05 0257 2187.5 002320017 Milford Haven Radio WLS eu IO71kq 687 427 270
2499585 2024-06-05 0245 2187.5 002320014 Falmouth Radio ENG eu IN79jx 743 461 255
2499570 2024-06-05 0219 2187.5 002111240 Bremen Rescue Radio DEU eu JO43jb 250 285 177 66
2499597 2024-06-05 0213 2187.5 002570300 Rogaland Radio NOR eu JO28tp 729 453 3
2499594 2024-06-05 0136 2187.5 002470125 Genova Radio ITA eu JN44lj 908 564 159
2499589 2024-06-05 0118 2187.5 002442000 Netherlands CG Radio HOL eu JO22dc 40 25 270
2499621 2024-06-05 0107 12577 002711000 Istanbul Radio TUR as KN40jx 2192 1362 114
2499588 2024-06-05 0056 2187.5 002371000 Olympia Radio GRC eu KM07ro 2065 1283 134
2499582 2024-06-05 0053 2187.5 002320007 Humber Radio ENG eu IO94xc 396 246 306
2499573 2024-06-05 0038 2187.5 002241024 Valencia Radio ESP eu IM98wr 1537 955 196
2499596 2024-06-05 0037 2187.5 002570000 Public Correspondance NOR eu
2499600 2024-06-05 0036 2187.5 002653000 Goteborg Radio SWE eu JO57xl 750 466 34
2499575 2024-06-05 0027 2187.5 002275100 CROSS Gris Nez FRA eu JO00tu 264 164 239
2499604 2024-06-05 0027 2187.5 002761000 Undva MRCC Tallinn EST eu KO08xm 1290 801 49
2499602 2024-06-05 0020 2187.5 002733700 Saint Petersburg Radio RUS eu KO59cv 1782 1107 51
2499609 2024-06-05 0020 8414.5 002371000 Olympia Radio GRC eu KM07ro 2065 1283 134
2499599 2024-06-05 0019 2187.5 002652000 Stockholm Radio SWE eu JO99ig 1173 729 41
2499574 2024-06-05 0012 2187.5 002241026 Las Palmas Radio CNR af IL27es 3196 1986 220
2499607 2024-06-05 0011 8414.5 002241024 Valencia Radio ESP eu IM98wr 1537 955 196
2499572 2024-06-05 0010 2187.5 002241022 Coruna Radio ESP eu IN53si 1389 863 230
2499581 2024-06-05 0008 2187.5 002320004 Aberdeen Radio SCT eu IO87xd 715 444 324
2499571 2024-06-05 0008 2187.5 002191000 Lyngby Radio DNK eu JO55rt 596 370 43
2499620 2024-06-05 0007 12577 002371000 Olympia Radio GRC eu KM07ro 2065 1283 134
2499606 2024-06-05 0001 8414.5 002241022 Coruna Radio ESP eu IN53si 1389 863 230
2497399 2024-05-27 0030 296 MG Ljubljana SVN eu JN76ge 961 597 129
2497409 2024-05-27 0030 316 CAL Cagliari / Elmas SAR eu JM49mf 1467 912 165
2497403 2024-05-27 0030 308 VT Vitoria ESP eu IN82ot 1182 734 212
2497408 2024-05-26 2330 316 TNJ Tounj HRV eu JN75qg 1080 671 130
2497394 2024-05-26 2230 289 RI Rijeka / Krk HRV eu JN75hd 1053 654 133
2497392 2024-05-26 2230 288.5 AVD Avord FRA eu JN17jc 50 576 358 195
2497410 2024-05-26 2230 317 VS Valenciennes / Denain FRA eu JO10qi 221 137 208
2497411 2024-05-26 2130 319 ECV Colmenar Viejo ESP eu IN80cq 50 1430 889 210
2497404 2024-05-26 0200 309 DO Dole / Tavaux FRA eu JN26px 571 355 176
2497401 2024-05-26 0000 300 PV Novi Sad / Cenej / Petrovaradin SRB eu JN95rd 1318 819 120
2497406 2024-05-25 2300 311 CEL Celle DEU eu JO52ao 25 355 221 78
2497402 2024-05-25 2300 303 RTT Innsbruck / Rattenberg AUT eu JN57xk 726 451 132
2497393 2024-05-25 2300 289 HR Hericourt FRA eu JN37in 25 522 324 164
2497397 2024-05-25 2200 295 DC Debrecen HNG eu KN07sk 1301 808 106
2497398 2024-05-25 2200 295 PT Skopje MKD eu KN01tv 50 1696 1054 125
2497400 2024-05-25 2200 297 PEP Prilep MKD eu KN01ri 1732 1076 127
2497396 2024-05-25 2100 292 NKR Neckar DEU eu JN49ii 25 408 253 137
2497390 2024-05-25 2100 284 GNA Gorna BUL eu KN23td 1837 1141 114
2497405 2024-05-24 1029 311 LMA Lima / Bruggen DEU eu JO31ei 25 133 82 128
2497389 2024-05-24 1029 277 CHT Chiltern ENG eu IO91ro 25 376 234 263
2497391 2024-05-24 1029 284.5 DY Dusseldorf DEU eu JO31if 25 160 99 126
2497395 2024-05-24 1029 290 ONL Liege / Bierset BEL eu JO20sq 15 164 102 163
2497407 2024-05-24 1029 316 EPM Epsom for Heathrow ENG eu IO91th 25 372 231 258
2493703 2024-04-29 0215 388.5 CDF Cardiff WLS eu IO81hj 10 573 356 265
2493686 2024-04-29 0145 385 AVN Vilnius LTU eu KO24pp 1378 856 70
2493671 2024-04-29 0145 534 R Ostrava / Mosnov / Rada CZE eu JN99bq 966 600 100
2493673 2024-04-28 2345 328 VJ Stauning DNK eu JO45fx 490 305 27
2493689 2024-04-28 2315 345 STM Strommen / Mo I Rana NOR eu JP66vg 1651 1026 14
2493675 2024-04-28 0330 421 GE Madrid / Grinon ESP eu IN80be 1484 922 210
2493691 2024-04-28 0100 382 LAR Arruda POR eu IM58lx 1811 1125 221
2493698 2024-04-27 2330 375 GLA Gland for Geneva / Cointrain SUI eu JN36cj 642 399 170
2493701 2024-04-27 2330 398 PEO Stockhlom / Skavsta / Peola SWE eu JO88mt 1067 663 40
2493665 2024-04-27 2230 424 GRS Ghriss ALG af JM05bf 25 1914 1189 193
2493704 2024-04-27 2200 433 VNS Castor UGS XOE iw JN00ij 1340 833 195
2493667 2024-04-27 2200 394 IZA Ibiza BAL eu JM08rv 200 1492 927 191
2493696 2024-04-27 0300 351 SBH Sumburgh Head SHE eu IO99iv 946 588 338
2493688 2024-04-27 0300 328.5 EGT Londonderry / Eglinton NIR eu IO65kb 856 532 297
2493690 2024-04-27 0100 488 NPR Tomaszow-Mazowiecki / Porter POL eu KO01bn 1048 651 87
2493702 2024-04-27 0100 561 JK Lutsk UKR eu KO20qu 1422 883 87
2493694 2024-04-27 0100 355 PIK Prestwick SCT eu IO75rm 725 450 305
2493695 2024-04-27 0100 412 SIG Sigonella (CT) SCY eu JM77lj 1815 1128 150
2493699 2024-04-27 0100 425 KE Kosice SVK eu KN08oo 1219 758 102
2493687 2024-04-27 0000 420 GO Podgorica MNE eu JN92ph 1535 953 129
2493692 2024-04-26 2200 428 TGM Targu Mures / Vidrasau ROU eu KN26dk 1537 955 106
2493674 2024-04-26 2200 352 NT Newcastle ENG eu IO95eb 90 540 336 310
2493697 2024-04-26 2200 405 JST Nis / Justic SRB eu KN03tk 50 1573 978 121
2493672 2024-04-26 2200 426 MIQ Mike for Ingolstadt DEU eu JN58tn 620 385 126
2493670 2024-04-26 2200 450 PDV Plovdiv BUL eu KN22ka 1874 1165 118
2493669 2024-04-26 2200 405 IL Sarajevo / Ilidza BIH eu JN93et 1360 845 127
2493676 2024-04-26 2200 322 TLN Hyeres / Le Palyvestre FRA eu JN33ba 50 1014 630 174
2493677 2024-04-26 2200 337 MY Myggenaes FRO eu IP62ec 1339 832 330
2493666 2024-04-26 2200 426 GBG Gleichenberg for Graz AUT eu JN76vv 100 976 607 122
2493680 2024-04-26 2200 418 DVN Split / Drvenik HRV eu JN83bk 1276 793 134
2493681 2024-04-26 2200 397 OP Dublin IRL eu IO63wj 15 753 468 285
2493682 2024-04-26 2200 375 VM Vestmannaeyar ISL eu HP93uj 100 1928 1198 320
2493683 2024-04-26 2200 379 PIS Pisa (PI) ITA eu JN53do 25 1027 638 154
2493679 2024-04-26 2200 373 NW Maastricht / Beek HOL eu JO21wa 15 139 86 149
2493700 2024-04-26 2200 463 CL Cerklje SVN eu JN75rv 1034 642 127
2493693 2024-04-26 2100 876 WG Volgograd / Gumrak RUS eu LN28ds 2781 1728 81
2493685 2024-04-26 1900 840 KR Kaliningrad / Khrabovo KAL eu KO04iv 1089 677 67
2493668 2024-04-26 1210 323 ONC Charleroi / Gosselies BEL eu JO20gl 25 182 113 187
2493678 2024-04-26 1210 383 TST UNID XUU xx
2493684 2024-04-26 1210 329 JW Jersey JSY eu IN89ve 595 370 239
2491322 2024-04-19 1848 8414.5 005743030 Ho Chi Minh Ville Radio XVS VTN as OK30nj 9916 6161 74
2491314 2024-04-19 0336 8414.5 002570700 Bodoe Radio NOR eu JP77eg 1764 1096 13
2491316 2024-04-18 2213 8414.5 003160023 Iqaluit Radio NU CAN na FP53rr 5000 4254 2643 316
2491306 2024-04-16 1918 2187.5 002711000 Istanbul Radio TUR as KN40jx 2192 1362 114
2491277 2024-04-15 2337 2187.5 002240996 MRCC Bilbao ESP eu IN83li 1137 707 214
2491303 2024-04-15 2248 2187.5 002618102 Polish Rescue Radio POL eu JO84gn 820 510 65
2491292 2024-04-15 2122 2187.5 002470002 Palermo Radio SCY eu JM68ne 1675 1040 154
2491308 2024-04-15 2108 2187.5 002734417 Kaliningrad Radio KAL eu KO04ir 1086 675 68
2491296 2024-04-15 2020 2187.5 002470124 Crotone Radio ITA eu JM89nb 1730 1075 142
2491291 2024-04-15 0804 2187.5 002442000 Netherlands CG Radio HOL eu JO22dc 40 25 270
2491327 2024-04-14 2156 12577 003669995 COMMSTA Portsmouth VA USA na FM16xr 6300 3914 288
2491319 2024-04-14 2148 8414.5 004121100 Tianjin Radio CHN as OM89ra 7975 4955 49
2491320 2024-04-14 1943 8414.5 004122100 Shanghai Radio CHN as PM01sc 8908 5535 50
2491328 2024-04-14 1939 12577 004122100 Shanghai Radio CHN as PM01sc 8908 5535 50
2491281 2024-04-14 0531 2187.5 002275100 CROSS Gris Nez FRA eu JO00tu 264 164 239
2491311 2024-04-14 0332 8414.5 002241026 Las Palmas Radio CNR af IL27es 3196 1986 220
2491302 2024-04-14 0324 2187.5 002570800 Vardo Radio NOR eu KQ50ni 2425 1507 23
2491310 2024-04-14 0306 8414.5 002241024 Valencia Radio ESP eu IM98wr 1537 955 196
2491301 2024-04-14 0247 2187.5 002570700 Bodoe Radio NOR eu JP77eg 1764 1096 13
2491290 2024-04-14 0227 2187.5 002371000 Olympia Radio GRC eu KM07ro 2065 1283 134
2491300 2024-04-14 0223 2187.5 002570300 Rogaland Radio NOR eu JO28tp 729 453 3
2491309 2024-04-14 0220 8414.5 002241022 Coruna Radio ESP eu IN53si 1389 863 230
2491285 2024-04-14 0213 2187.5 002320004 Aberdeen Radio SCT eu IO87xd 715 444 324
2491284 2024-04-14 0210 2187.5 002320001 Shetland Radio (Lerwick) SHE eu IP90kd 967 601 339
2491283 2024-04-14 0202 2187.5 002311000 Torshavn Radio FRO eu IP61ox 1301 808 332
2491294 2024-04-13 2221 2187.5 002470121 Bari Radio ITA eu JN81kc 1524 947 138
2491279 2024-04-13 2214 2187.5 002241024 Valencia Radio ESP eu IM98wr 1537 955 196
2491304 2024-04-13 2204 2187.5 002652000 Stockholm Radio SWE eu JO99ig 1173 729 41
2491286 2024-04-13 2201 2187.5 002320007 Humber Radio ENG eu IO94xc 396 246 306
2491317 2024-04-13 2159 8414.5 003669995 COMMSTA Portsmouth VA USA na FM16xr 6300 3914 288
2491321 2024-04-13 2134 8414.5 004123100 Guangzhou Radio CHN as OL63rd 9175 5701 61
2491282 2024-04-13 2129 2187.5 002275200 CROSS Jobourg FRA eu IN99bq 544 338 243
2491299 2024-04-13 2117 2187.5 002570000 Public Correspondance NOR eu
2491298 2024-04-13 2112 2187.5 002470135 Trieste Radio ITA eu JN65vq 965 600 134
2491293 2024-04-13 2111 2187.5 002470119 Ancona Radio ITA eu JN63sp 1139 708 142
2491275 2024-04-13 2110 2187.5 002111240 Bremen Rescue Radio DEU eu JO43jb 250 285 177 66
2491297 2024-04-13 2108 2187.5 002470125 Genova Radio ITA eu JN44lj 908 564 159
2491295 2024-04-13 2103 2187.5 002470123 Civitavecchia Radio ITA eu JN52vc 1228 763 152
2491289 2024-04-13 2058 2187.5 002320024 Stornoway Radio SCT eu IO68vl 995 618 319
2491288 2024-04-13 2008 2187.5 002320014 Falmouth Radio ENG eu IN79jx 743 461 255
2491278 2024-04-13 2005 2187.5 002241022 Coruna Radio ESP eu IN53si 1389 863 230
2491280 2024-04-13 1951 2187.5 002241026 Las Palmas Radio CNR af IL27es 3196 1986 220
2491305 2024-04-13 1947 2187.5 002653000 Goteborg Radio SWE eu JO57xl 750 466 34
2491287 2024-04-13 1945 2187.5 002320010 Dover Radio ENG eu JO01pd 269 167 248
2491307 2024-04-13 1942 2187.5 002733700 Saint Petersburg Radio RUS eu KO59cv 1782 1107 51
2491329 2024-04-13 1638 12577 004123100 Guangzhou Radio CHN as OL63rd 9175 5701 61
2491324 2024-04-13 1450 12577 002241026 Las Palmas Radio CNR af IL27es 3196 1986 220
2491274 2024-04-13 0651 2187.5 002050480 Oostende Radio BEL eu JO11ne 1000 158 98 230
2491276 2024-04-13 0648 2187.5 002191000 Lyngby Radio DNK eu JO55rt 596 370 43
2491318 2024-04-13 0621 8414.5 003669998 COMMSTA New Orleans LA USA na EL59av 7739 4809 292
2491323 2024-04-13 0533 12577 002241022 Coruna Radio ESP eu IN53si 1389 863 230
2491325 2024-04-13 0410 12577 002371000 Olympia Radio GRC eu KM07ro 2065 1283 134
2491326 2024-04-13 0351 12577 002711000 Istanbul Radio TUR as KN40jx 2192 1362 114
2491315 2024-04-13 0047 8414.5 002711000 Istanbul Radio TUR as KN40jx 2192 1362 114
2491313 2024-04-13 0036 8414.5 002570000 Public Correspondence NOR eu
2491312 2024-04-13 0002 8414.5 002371000 Olympia Radio GRC eu KM07ro 2065 1283 134
2487737 2024-04-01 2139 12577 003669991 COMMSTA Boston MA USA na FN41rp 5583 3469 289
2487731 2024-04-01 2138 8414.5 003669991 COMMSTA Boston MA USA na FN41rp 5583 3469 289
2487728 2024-04-01 1744 8414.5 002320204 Faversham Radio (MNC) ENG eu JO1Kh
2487727 2024-04-01 1421 8414.5 002241026 Las Palmas Radio CNR af IL27es 3196 1986 220
2487734 2024-04-01 1203 12577 002241026 Las Palmas Radio CNR af IL27es 3196 1986 220
2487736 2024-04-01 1202 12577 002711000 Istanbul Radio TUR as KN40jx 2192 1362 114
2487738 2024-04-01 1012 12577 003669997 COMMSTA Miami FL USA na EL95to 7476 4645 282
2487726 2024-04-01 1000 8414.5 002241024 Valencia Radio ESP eu IM98wr 1537 955 196
2487733 2024-04-01 0834 12577 002241022 Coruna Radio ESP eu IN53si 1389 863 230
2487732 2024-04-01 0622 8414.5 007100003 Manaus Radio BRA sa GI06av 8606 5347 247
2487730 2024-04-01 0550 8414.5 002711000 Istanbul Radio TUR as KN40jx 2192 1362 114
2487735 2024-04-01 0545 12577 002371000 Olympia Radio GRC eu KM07ro 2065 1283 134
2487725 2024-04-01 0541 8414.5 002241022 Coruna Radio ESP eu IN53si 1389 863 230
2487729 2024-04-01 0001 8414.5 002371000 Olympia Radio GRC eu KM07ro 2065 1283 134
2486862 2024-03-28 2322 2187.5 002618102 Polish Rescue Radio POL eu JO84gn 820 510 65
2486856 2024-03-28 2208 2187.5 002470125 Genova Radio ITA eu JN44lj 908 564 159
2486857 2024-03-28 2206 2187.5 002470135 Trieste Radio ITA eu JN65vq 965 600 134
2486867 2024-03-28 1935 2187.5 002734419 Astrakhan Radio RUS eu LN35tu 3148 1956 85
2486846 2024-03-28 1812 2187.5 002275300 CROSS Corsen FRA eu IN78ll 811 504 244
2486853 2024-03-28 0605 2187.5 002470119 Ancona Radio ITA eu JN63sp 1139 708 142
2486866 2024-03-28 0604 2187.5 002734417 Kaliningrad Radio KAL eu KO04ir 1086 675 68
2486847 2024-03-28 0603 2187.5 002275400 CROSS La Garde FRA eu JN23xc 1004 624 174
2486865 2024-03-28 0451 2187.5 002733700 Saint Petersburg Radio RUS eu KO59cv 1782 1107 51
2486858 2024-03-28 0412 2187.5 002500200 Valentia Radio IRL eu IO41tv 1042 648 274
2486855 2024-03-28 0316 2187.5 002470123 Civitavecchia Radio ITA eu JN52vc 1228 763 152
2486845 2024-03-28 0235 2187.5 002275200 CROSS Jobourg FRA eu IN99bq 544 338 243
2486854 2024-03-28 0206 2187.5 002470121 Bari Radio ITA eu JN81kc 1524 947 138
2486849 2024-03-28 0203 2187.5 002320010 Dover Radio ENG eu JO01pd 269 167 248
2486851 2024-03-28 0133 2187.5 002320018 Holyhead Radio ENG eu IO73ph 659 409 285
2486859 2024-03-28 0122 2187.5 002570000 Public Correspondance NOR eu
2486852 2024-03-28 0119 2187.5 002371000 Olympia Radio GRC eu KM07ro 2065 1283 134
2486864 2024-03-28 0105 2187.5 002653000 Goteborg Radio SWE eu JO57xl 750 466 34
2486868 2024-03-28 0053 2187.5 002761000 Undva MRCC Tallinn EST eu KO08xm 1290 801 49
2486843 2024-03-28 0046 2187.5 002241026 Las Palmas Radio CNR af IL27es 3196 1986 220
2486839 2024-03-28 0045 2187.5 002111240 Bremen Rescue Radio DEU eu JO43jb 250 285 177 66
2486848 2024-03-28 0045 2187.5 002320007 Humber Radio ENG eu IO94xc 396 246 306
2486850 2024-03-28 0044 2187.5 002320014 Falmouth Radio ENG eu IN79jx 743 461 255
2486844 2024-03-28 0040 2187.5 002275100 CROSS Gris Nez FRA eu JO00tu 264 164 239
2486841 2024-03-28 0020 2187.5 002241022 Coruna Radio ESP eu IN53si 1389 863 230
2486842 2024-03-28 0020 2187.5 002241024 Valencia Radio ESP eu IM98wr 1537 955 196
2486863 2024-03-28 0012 2187.5 002652000 Stockholm Radio SWE eu JO99ig 1173 729 41
2486838 2024-03-28 0011 2187.5 002050480 Oostende Radio BEL eu JO11ne 1000 158 98 230
2486861 2024-03-28 0008 2187.5 002570500 Floroe Radio NOR eu JP21mn 1052 653 0
2486860 2024-03-28 0004 2187.5 002570300 Rogaland Radio NOR eu JO28tp 729 453 3
2486840 2024-03-28 0001 2187.5 002191000 Lyngby Radio DNK eu JO55rt 596 370 43
2485928 2024-03-25 2302 2187.5 002320001 Shetland Radio (Lerwick) SHE eu IP90kd 967 601 339
2485939 2024-03-25 2217 2187.5 002570300 Rogaland Radio NOR eu JO28tp 729 453 3
2485937 2024-03-25 2211 2187.5 002500200 Valentia Radio IRL eu IO41tv 1042 648 274
2485936 2024-03-25 2201 2187.5 002470125 Genova Radio ITA eu JN44lj 908 564 159
2485930 2024-03-25 2016 2187.5 002320007 Humber Radio ENG eu IO94xc 396 246 306
2485927 2024-03-25 2006 2187.5 002275400 CROSS La Garde FRA eu JN23xc 1004 624 174
2485926 2024-03-25 1727 2187.5 002275200 CROSS Jobourg FRA eu IN99bq 544 338 243
2485934 2024-03-25 0603 2187.5 002470119 Ancona Radio ITA eu JN63sp 1139 708 142
2485929 2024-03-25 0456 2187.5 002320004 Aberdeen Radio SCT eu IO87xd 715 444 324
2485940 2024-03-25 0441 2187.5 002618102 Polish Rescue Radio POL eu JO84gn 820 510 65
2485942 2024-03-25 0413 2187.5 002733700 Saint Petersburg Radio RUS eu KO59cv 1782 1107 51
2485920 2024-03-25 0345 2187.5 002111240 Bremen Rescue Radio DEU eu JO43jb 250 285 177 66
2485935 2024-03-25 0327 2187.5 002470124 Crotone Radio ITA eu JM89nb 1730 1075 142
2485932 2024-03-25 0254 2187.5 002320014 Falmouth Radio ENG eu IN79jx 743 461 255
2485943 2024-03-25 0145 2187.5 002734423 Makhachkala Radio RUS eu LN33ra 3297 2049 90
2485941 2024-03-25 0115 2187.5 002653000 Goteborg Radio SWE eu JO57xl 750 466 34
2485921 2024-03-25 0053 2187.5 002191000 Lyngby Radio DNK eu JO55rt 596 370 43
2485938 2024-03-25 0046 2187.5 002570000 Public Correspondance NOR eu
2485944 2024-03-25 0034 2187.5 006221113 Port Said Radio EGY af KM61dg 3211 1995 125
2485933 2024-03-25 0011 2187.5 002371000 Olympia Radio GRC eu KM07ro 2065 1283 134
2485919 2024-03-25 0010 2187.5 002050480 Oostende Radio BEL eu JO11ne 1000 158 98 230
2485931 2024-03-25 0009 2187.5 002320010 Dover Radio ENG eu JO01pd 269 167 248
2485925 2024-03-25 0007 2187.5 002275100 CROSS Gris Nez FRA eu JO00tu 264 164 239
2485923 2024-03-25 0003 2187.5 002241024 Valencia Radio ESP eu IM98wr 1537 955 196
2485922 2024-03-25 0002 2187.5 002241022 Coruna Radio ESP eu IN53si 1389 863 230
2485924 2024-03-25 0000 2187.5 002241026 Las Palmas Radio CNR af IL27es 3196 1986 220
2485070 2024-03-22 2337 2187.5 006221113 Port Said Radio EGY af KM61dg 3211 1995 125
2485075 2024-03-22 2331 8414.5 002570000 Public Correspondence NOR eu
2485055 2024-03-22 2321 2187.5 002470121 Bari Radio ITA eu JN81kc 1524 947 138
2485069 2024-03-22 2318 2187.5 002761000 Undva MRCC Tallinn EST eu KO08xm 1290 801 49
2485058 2024-03-22 2213 2187.5 002500200 Valentia Radio IRL eu IO41tv 1042 648 274
2485054 2024-03-22 2208 2187.5 002470119 Ancona Radio ITA eu JN63sp 1139 708 142
2485057 2024-03-22 2205 2187.5 002470133 Porto Torres Radio ITA eu JN40dt 1282 797 166
2485079 2024-03-22 1950 8414.5 004122100 Shanghai Radio CHN as PM01sc 8908 5535 50
2485066 2024-03-22 1810 2187.5 002711000 Istanbul Radio TUR as KN40jx 2192 1362 114
2485080 2024-03-22 1720 8414.5 004123100 Guangzhou Radio CHN as OL63rd 9175 5701 61
2485068 2024-03-22 1639 2187.5 002734417 Kaliningrad Radio KAL eu KO04ir 1086 675 68
2485053 2024-03-22 1009 2187.5 002442000 Netherlands CG Radio HOL eu JO22dc 40 25 270
2485083 2024-03-22 1005 12577 002711000 Istanbul Radio TUR as KN40jx 2192 1362 114
2485081 2024-03-22 1001 12577 002241022 Coruna Radio ESP eu IN53si 1389 863 230
2485076 2024-03-22 0759 8414.5 002711000 Istanbul Radio TUR as KN40jx 2192 1362 114
2485078 2024-03-22 0629 8414.5 003669997 COMMSTA Miami FL USA na EL95to 7476 4645 282
2485062 2024-03-22 0543 2187.5 002570800 Vardo Radio NOR eu KQ50ni 2425 1507 23
2485050 2024-03-22 0433 2187.5 002320014 Falmouth Radio ENG eu IN79jx 743 461 255
2485082 2024-03-22 0411 12577 002371000 Olympia Radio GRC eu KM07ro 2065 1283 134
2485046 2024-03-22 0403 2187.5 002320001 Shetland Radio (Lerwick) SHE eu IP90kd 967 601 339
2485077 2024-03-22 0355 8414.5 003669991 COMMSTA Boston MA USA na FN41rp 5583 3469 289
2485064 2024-03-22 0327 2187.5 002652000 Stockholm Radio SWE eu JO99ig 1173 729 41
2485060 2024-03-22 0321 2187.5 002570100 Tjome Radio NOR eu JO59hk 890 553 21
2485048 2024-03-22 0216 2187.5 002320007 Humber Radio ENG eu IO94xc 396 246 306
2485067 2024-03-22 0207 2187.5 002733700 Saint Petersburg Radio RUS eu KO59cv 1782 1107 51
2485051 2024-03-22 0130 2187.5 002320017 Milford Haven Radio WLS eu IO71kq 687 427 270
2485073 2024-03-22 0127 8414.5 002241026 Las Palmas Radio CNR af IL27es 3196 1986 220
2485042 2024-03-22 0122 2187.5 002241024 Valencia Radio ESP eu IM98wr 1537 955 196
2485061 2024-03-22 0052 2187.5 002570300 Rogaland Radio NOR eu JO28tp 729 453 3
2485045 2024-03-22 0050 2187.5 002275200 CROSS Jobourg FRA eu IN99bq 544 338 243
2485044 2024-03-22 0039 2187.5 002275100 CROSS Gris Nez FRA eu JO00tu 264 164 239
2485063 2024-03-22 0035 2187.5 002618102 Polish Rescue Radio POL eu JO84gn 820 510 65
2485052 2024-03-22 0032 2187.5 002371000 Olympia Radio GRC eu KM07ro 2065 1283 134
2485065 2024-03-22 0032 2187.5 002653000 Goteborg Radio SWE eu JO57xl 750 466 34
2485072 2024-03-22 0029 8414.5 002241024 Valencia Radio ESP eu IM98wr 1537 955 196
2485047 2024-03-22 0026 2187.5 002320004 Aberdeen Radio SCT eu IO87xd 715 444 324
2485056 2024-03-22 0022 2187.5 002470124 Crotone Radio ITA eu JM89nb 1730 1075 142
2485039 2024-03-22 0021 2187.5 002111240 Bremen Rescue Radio DEU eu JO43jb 250 285 177 66
2485043 2024-03-22 0020 2187.5 002241026 Las Palmas Radio CNR af IL27es 3196 1986 220
2485074 2024-03-22 0014 8414.5 002371000 Olympia Radio GRC eu KM07ro 2065 1283 134
2485038 2024-03-22 0014 2187.5 002050480 Oostende Radio BEL eu JO11ne 1000 158 98 230
2485041 2024-03-22 0007 2187.5 002241022 Coruna Radio ESP eu IN53si 1389 863 230
2485059 2024-03-22 0006 2187.5 002570000 Public Correspondance NOR eu
2485040 2024-03-22 0005 2187.5 002191000 Lyngby Radio DNK eu JO55rt 596 370 43
2485071 2024-03-22 0003 8414.5 002241022 Coruna Radio ESP eu IN53si 1389 863 230
2485049 2024-03-22 0001 2187.5 002320011 Solent Radio ENG eu IO90xs 372 231 248
2484542 2024-03-20 2253 12577 003669991 COMMSTA Boston MA USA na FN41rp 5583 3469 289
2484514 2024-03-20 2149 2187.5 002320024 Stornoway Radio SCT eu IO68vl 995 618 319
2484513 2024-03-20 2135 2187.5 002320021 Belfast Radio NIR eu IO74eq 752 467 296
2484537 2024-03-20 2134 8414.5 004225601 Amir Abad Radio IRN as LM66qu 4110 2554 94
2484505 2024-03-20 2131 2187.5 002275100 CROSS Gris Nez FRA eu JO00tu 264 164 239
2484544 2024-03-20 2034 12577 005030001 Charleville / Wiluna Radio WE AUS oc PG30gp 1000 14666 9113 85
2484504 2024-03-20 1940 2187.5 002275000 CROSS Etel FRA eu IN87jp 762 473 232
2484535 2024-03-20 1907 8414.5 004122100 Shanghai Radio CHN as PM01sc 8908 5535 50
2484536 2024-03-20 1840 8414.5 004123100 Guangzhou Radio CHN as OL63rd 9175 5701 61
2484497 2024-03-20 1746 2187.5 002050480 Oostende Radio BEL eu JO11ne 1000 158 98 230
2484516 2024-03-20 1339 2187.5 002442000 Netherlands CG Radio HOL eu JO22dc 40 25 270
2484539 2024-03-20 0630 12577 002241026 Las Palmas Radio CNR af IL27es 3196 1986 220
2484538 2024-03-20 0616 12577 002241022 Coruna Radio ESP eu IN53si 1389 863 230
2484517 2024-03-20 0604 2187.5 002470119 Ancona Radio ITA eu JN63sp 1139 708 142
2484523 2024-03-20 0603 2187.5 002570500 Floroe Radio NOR eu JP21mn 1052 653 0
2484527 2024-03-20 0602 2187.5 002734417 Kaliningrad Radio KAL eu KO04ir 1086 675 68
2484521 2024-03-20 0518 2187.5 002510100 Reykjavik Radio ISL eu HP94bb 2032 1263 321
2484540 2024-03-20 0516 12577 002371000 Olympia Radio GRC eu KM07ro 2065 1283 134
2484541 2024-03-20 0446 12577 002711000 Istanbul Radio TUR as KN40jx 2192 1362 114
2484534 2024-03-20 0441 8414.5 003669997 COMMSTA Miami FL USA na EL95to 7476 4645 282
2484543 2024-03-20 0441 12577 003669997 COMMSTA Miami FL USA na EL95to 7476 4645 282
2484519 2024-03-20 0412 2187.5 002470123 Civitavecchia Radio ITA eu JN52vc 1228 763 152
2484512 2024-03-20 0411 2187.5 002320017 Milford Haven Radio WLS eu IO71kq 687 427 270
2484520 2024-03-20 0337 2187.5 002470125 Genova Radio ITA eu JN44lj 908 564 159
2484510 2024-03-20 0251 2187.5 002320010 Dover Radio ENG eu JO01pd 269 167 248
2484500 2024-03-20 0247 2187.5 002241002 Almeria Radio ESP eu IM86vq 1802 1120 200
2484509 2024-03-20 0223 2187.5 002320007 Humber Radio ENG eu IO94xc 396 246 306
2484518 2024-03-20 0201 2187.5 002470121 Bari Radio ITA eu JN81kc 1524 947 138
2484522 2024-03-20 0125 2187.5 002570000 Public Correspondance NOR eu
2484533 2024-03-20 0122 8414.5 003669991 COMMSTA Boston MA USA na FN41rp 5583 3469 289
2484507 2024-03-20 0120 2187.5 002320001 Shetland Radio (Lerwick) SHE eu IP90kd 967 601 339
2484528 2024-03-20 0115 2187.5 002760100 Tallinn Radio EST eu KO29hj 1469 913 48
2484506 2024-03-20 0114 2187.5 002275200 CROSS Jobourg FRA eu IN99bq 544 338 243
2484508 2024-03-20 0059 2187.5 002320004 Aberdeen Radio SCT eu IO87xd 715 444 324
2484511 2024-03-20 0058 2187.5 002320014 Falmouth Radio ENG eu IN79jx 743 461 255
2484530 2024-03-20 0050 8414.5 002241024 Valencia Radio ESP eu IM98wr 1537 955 196
2484498 2024-03-20 0033 2187.5 002111240 Bremen Rescue Radio DEU eu JO43jb 250 285 177 66
2484524 2024-03-20 0032 2187.5 002618102 Polish Rescue Radio POL eu JO84gn 820 510 65
2484531 2024-03-20 0031 8414.5 002241026 Las Palmas Radio CNR af IL27es 3196 1986 220
2484515 2024-03-20 0031 2187.5 002371000 Olympia Radio GRC eu KM07ro 2065 1283 134
2484532 2024-03-20 0030 8414.5 002371000 Olympia Radio GRC eu KM07ro 2065 1283 134
2484499 2024-03-20 0026 2187.5 002191000 Lyngby Radio DNK eu JO55rt 596 370 43
2484501 2024-03-20 0016 2187.5 002241022 Coruna Radio ESP eu IN53si 1389 863 230
2484503 2024-03-20 0010 2187.5 002241026 Las Palmas Radio CNR af IL27es 3196 1986 220
2484525 2024-03-20 0009 2187.5 002652000 Stockholm Radio SWE eu JO99ig 1173 729 41
2484526 2024-03-20 0006 2187.5 002653000 Goteborg Radio SWE eu JO57xl 750 466 34
2484502 2024-03-20 0001 2187.5 002241024 Valencia Radio ESP eu IM98wr 1537 955 196
2484529 2024-03-20 0000 8414.5 002241022 Coruna Radio ESP eu IN53si 1389 863 230
2484405 2024-03-19 2302 2187.5 002713000 Antalya Radio TUR as KM66fd 2798 1739 118
2484413 2024-03-19 2234 8414.5 004122100 Shanghai Radio CHN as PM01sc 8908 5535 50
2484397 2024-03-19 2216 2187.5 002470125 Genova Radio ITA eu JN44lj 908 564 159
2484420 2024-03-19 2132 12577 005030001 Charleville / Wiluna Radio WE AUS oc PG30gp 1000 14666 9113 85
2484394 2024-03-19 2027 2187.5 002371000 Olympia Radio GRC eu KM07ro 2065 1283 134
2484390 2024-03-19 1846 2187.5 002320001 Shetland Radio (Lerwick) SHE eu IP90kd 967 601 339
2484414 2024-03-19 1739 8414.5 004123100 Guangzhou Radio CHN as OL63rd 9175 5701 61
2484421 2024-03-19 1739 12577 005671000 Bangkok Radio THA as OK03hn 9207 5721 77
2484419 2024-03-19 1734 12577 004123100 Guangzhou Radio CHN as OL63rd 9175 5701 61
2484388 2024-03-19 1608 2187.5 002275100 CROSS Gris Nez FRA eu JO00tu 264 164 239
2484416 2024-03-19 1320 12577 002241026 Las Palmas Radio CNR af IL27es 3196 1986 220
2484399 2024-03-19 0707 2187.5 002570200 Farsund Radio NOR eu JO38ib 673 418 9
2484415 2024-03-19 0702 12577 002241022 Coruna Radio ESP eu IN53si 1389 863 230
2484407 2024-03-19 0606 2187.5 002734417 Kaliningrad Radio KAL eu KO04ir 1086 675 68
2484417 2024-03-19 0545 12577 002371000 Olympia Radio GRC eu KM07ro 2065 1283 134
2484402 2024-03-19 0522 2187.5 002652000 Stockholm Radio SWE eu JO99ig 1173 729 41
2484395 2024-03-19 0519 2187.5 002470119 Ancona Radio ITA eu JN63sp 1139 708 142
2484418 2024-03-19 0432 12577 002711000 Istanbul Radio TUR as KN40jx 2192 1362 114
2484412 2024-03-19 0414 8414.5 002711000 Istanbul Radio TUR as KN40jx 2192 1362 114
2484410 2024-03-19 0413 8414.5 002241026 Las Palmas Radio CNR af IL27es 3196 1986 220
2484391 2024-03-19 0410 2187.5 002320004 Aberdeen Radio SCT eu IO87xd 715 444 324
2484403 2024-03-19 0409 2187.5 002653000 Goteborg Radio SWE eu JO57xl 750 466 34
2484401 2024-03-19 0312 2187.5 002618102 Polish Rescue Radio POL eu JO84gn 820 510 65
2484406 2024-03-19 0214 2187.5 002734414 Arkhangelsk Radio RUS eu LP04gn 2450 1522 41
2484409 2024-03-19 0212 8414.5 002241024 Valencia Radio ESP eu IM98wr 1537 955 196
2484389 2024-03-19 0202 2187.5 002275200 CROSS Jobourg FRA eu IN99bq 544 338 243
2484393 2024-03-19 0159 2187.5 002320010 Dover Radio ENG eu JO01pd 269 167 248
2484392 2024-03-19 0158 2187.5 002320007 Humber Radio ENG eu IO94xc 396 246 306
2484408 2024-03-19 0133 8414.5 002241022 Coruna Radio ESP eu IN53si 1389 863 230
2484404 2024-03-19 0108 2187.5 002711000 Istanbul Radio TUR as KN40jx 2192 1362 114
2484384 2024-03-19 0058 2187.5 002191000 Lyngby Radio DNK eu JO55rt 596 370 43
2484383 2024-03-19 0043 2187.5 002111240 Bremen Rescue Radio DEU eu JO43jb 250 285 177 66
2484400 2024-03-19 0042 2187.5 002570300 Rogaland Radio NOR eu JO28tp 729 453 3
2484386 2024-03-19 0034 2187.5 002241024 Valencia Radio ESP eu IM98wr 1537 955 196
2484396 2024-03-19 0032 2187.5 002470121 Bari Radio ITA eu JN81kc 1524 947 138
2484385 2024-03-19 0031 2187.5 002241022 Coruna Radio ESP eu IN53si 1389 863 230
2484398 2024-03-19 0021 2187.5 002570000 Public Correspondance NOR eu
2484382 2024-03-19 0015 2187.5 002050480 Oostende Radio BEL eu JO11ne 1000 158 98 230
2484411 2024-03-19 0003 8414.5 002371000 Olympia Radio GRC eu KM07ro 2065 1283 134
2484387 2024-03-19 0000 2187.5 002241026 Las Palmas Radio CNR af IL27es 3196 1986 220
2481530 2024-03-10 2354 2187.5 002652000 Stockholm Radio SWE eu JO99ig 1173 729 41
2481539 2024-03-10 2350 8414.5 003669991 COMMSTA Boston MA USA na FN41rp 5583 3469 289
2481531 2024-03-10 2336 2187.5 002653000 Goteborg Radio SWE eu JO57xl 750 466 34
2481518 2024-03-10 2326 2187.5 002320010 Dover Radio ENG eu JO01pd 269 167 248
2481520 2024-03-10 2309 2187.5 002320018 Holyhead Radio ENG eu IO73ph 659 409 285
2481526 2024-03-10 2201 2187.5 002470123 Civitavecchia Radio ITA eu JN52vc 1228 763 152
2481523 2024-03-10 2111 2187.5 002470002 Palermo Radio SCY eu JM68ne 1675 1040 154
2481532 2024-03-10 2110 2187.5 002734411 Novorossiysk Radio RUS eu KN84uq 2535 1575 95
2481514 2024-03-10 2015 2187.5 002241024 Valencia Radio ESP eu IM98wr 1537 955 196
2481547 2024-03-10 2013 12577 002711000 Istanbul Radio TUR as KN40jx 2192 1362 114
2481548 2024-03-10 2008 12577 004123100 Guangzhou Radio CHN as OL63rd 9175 5701 61
2481524 2024-03-10 2006 2187.5 002470119 Ancona Radio ITA eu JN63sp 1139 708 142
2481517 2024-03-10 2003 2187.5 002320004 Aberdeen Radio SCT eu IO87xd 715 444 324
2481542 2024-03-10 2000 8414.5 004123100 Guangzhou Radio CHN as OL63rd 9175 5701 61
2481553 2024-03-10 2000 16804.5 003669998 COMMSTA New Orleans LA USA na EL59av 7739 4809 292
2481543 2024-03-10 1954 8414.5 004162019 Chilung Keelung Radio TWN as PL05vd 9474 5886 54
2481529 2024-03-10 1934 2187.5 002570800 Vardo Radio NOR eu KQ50ni 2425 1507 23
2481522 2024-03-10 1932 2187.5 002442000 Netherlands CG Radio HOL eu JO22dc 40 25 270
2481540 2024-03-10 1924 8414.5 004121100 Tianjin Radio CHN as OM89ra 7975 4955 49
2481521 2024-03-10 1843 2187.5 002320021 Belfast Radio NIR eu IO74eq 752 467 296
2481515 2024-03-10 1831 2187.5 002241026 Las Palmas Radio CNR af IL27es 3196 1986 220
2481528 2024-03-10 1822 2187.5 002570300 Rogaland Radio NOR eu JO28tp 729 453 3
2481513 2024-03-10 1806 2187.5 002241022 Coruna Radio ESP eu IN53si 1389 863 230
2481525 2024-03-10 1801 2187.5 002470121 Bari Radio ITA eu JN81kc 1524 947 138
2481519 2024-03-10 1757 2187.5 002320014 Falmouth Radio ENG eu IN79jx 743 461 255
2481541 2024-03-10 1757 8414.5 004122100 Shanghai Radio CHN as PM01sc 8908 5535 50
2481557 2024-03-10 1734 16804.5 006010001 Cape Town Radio AFS af JF96ii 9629 5983 168
2481527 2024-03-10 1648 2187.5 002570000 Public Correspondance NOR eu
2481511 2024-03-10 1629 2187.5 002111240 Bremen Rescue Radio DEU eu JO43jb 250 285 177 66
2481516 2024-03-10 1603 2187.5 002275100 CROSS Gris Nez FRA eu JO00tu 264 164 239
2481533 2024-03-10 1515 2187.5 002734417 Kaliningrad Radio KAL eu KO04ir 1086 675 68
2481512 2024-03-10 1506 2187.5 002191000 Lyngby Radio DNK eu JO55rt 596 370 43
2481554 2024-03-10 1412 16804.5 004122100 Shanghai Radio CHN as PM01sc 8908 5535 50
2481549 2024-03-10 1357 16804.5 002070810 Varna Radio BUL eu KN33vb 1979 1229 111
2481555 2024-03-10 1253 16804.5 004123100 Guangzhou Radio CHN as OL63rd 9175 5701 61
2481545 2024-03-10 1141 12577 002241026 Las Palmas Radio CNR af IL27es 3196 1986 220
2481552 2024-03-10 1053 16804.5 003669997 COMMSTA Miami FL USA na EL95to 7476 4645 282
2481510 2024-03-10 1027 2187.5 002050480 Oostende Radio BEL eu JO11ne 1000 158 98 230
2481544 2024-03-10 0813 12577 002241022 Coruna Radio ESP eu IN53si 1389 863 230
2481556 2024-03-10 0643 16804.5 005030001 Charleville / Wiluna Radio WE AUS oc PG30gp 14666 9113 85
2481546 2024-03-10 0616 12577 002371000 Olympia Radio GRC eu KM07ro 2065 1283 134
2481558 2024-03-10 0605 8414.5 007010030 UNID ARG sa
2481550 2024-03-10 0540 16804.5 002371000 Olympia Radio GRC eu KM07ro 2065 1283 134
2481551 2024-03-10 0510 16804.5 002711000 Istanbul Radio TUR as KN40jx 2192 1362 114
2481536 2024-03-10 0427 8414.5 002241026 Las Palmas Radio CNR af IL27es 3196 1986 220
2481538 2024-03-10 0104 8414.5 002711000 Istanbul Radio TUR as KN40jx 2192 1362 114
2481537 2024-03-10 0020 8414.5 002371000 Olympia Radio GRC eu KM07ro 2065 1283 134
2481534 2024-03-10 0006 8414.5 002241022 Coruna Radio ESP eu IN53si 1389 863 230
2481535 2024-03-10 0000 8414.5 002241024 Valencia Radio ESP eu IM98wr 1537 955 196
2481083 2024-03-09 2245 8414.5 003669995 COMMSTA Portsmouth VA USA na FM16xr 6300 3914 288
2481084 2024-03-09 1823 8414.5 004122100 Shanghai Radio CHN as PM01sc 8908 5535 50
2481086 2024-03-09 1552 12577 002241024 Valencia Radio ESP eu IM98wr 1537 955 196
2481094 2024-03-09 1434 16804.5 004773500 Hong Kong Marine Rescue CHN as OL72df 9308 5783 61
2481087 2024-03-09 1421 12577 002241026 Las Palmas Radio CNR af IL27es 3196 1986 220
2481089 2024-03-09 1415 12577 002711000 Istanbul Radio TUR as KN40jx 2192 1362 114
2481093 2024-03-09 1211 16804.5 004123100 Guangzhou Radio CHN as OL63rd 9175 5701 61
2481090 2024-03-09 0839 16804.5 002070810 Varna Radio BUL eu KN33vb 1979 1229 111
2481079 2024-03-09 0821 8414.5 002241024 Valencia Radio ESP eu IM98wr 1537 955 196
2481092 2024-03-09 0804 16804.5 002711000 Istanbul Radio TUR as KN40jx 2192 1362 114
2481091 2024-03-09 0716 16804.5 002371000 Olympia Radio GRC eu KM07ro 2065 1283 134
2481085 2024-03-09 0706 12577 002241022 Coruna Radio ESP eu IN53si 1389 863 230
2481080 2024-03-09 0621 8414.5 002241026 Las Palmas Radio CNR af IL27es 3196 1986 220
2481088 2024-03-09 0527 12577 002371000 Olympia Radio GRC eu KM07ro 2065 1283 134
2481078 2024-03-09 0331 8414.5 002241022 Coruna Radio ESP eu IN53si 1389 863 230
2481082 2024-03-09 0034 8414.5 002711000 Istanbul Radio TUR as KN40jx 2192 1362 114
2481081 2024-03-09 0005 8414.5 002371000 Olympia Radio GRC eu KM07ro 2065 1283 134
2482834 2024-03-08 2322 308 MOJ Mojkovac MNE eu JN92sw 40 1495 929 127
2482837 2024-03-08 2222 296 MG Ljubljana SVN eu JN76ge 961 597 129
2482833 2024-03-08 0222 292 MIA Melilla MEL af IM85mh 250 1968 1223 201
2482835 2024-03-07 0234 295 DC Debrecen HNG eu KN07sk 1301 808 106
2480521 2024-03-06 2352 2187.5 002733700 Saint Petersburg Radio RUS eu KO59cv 1782 1107 51
2480506 2024-03-06 2342 2187.5 002111240 Bremen Rescue Radio DEU eu JO43jb 250 285 177 66
2480513 2024-03-06 2333 2187.5 002320007 Humber Radio ENG eu IO94xc 396 246 306
2480514 2024-03-06 2302 2187.5 002470121 Bari Radio ITA eu JN81kc 1524 947 138
2480528 2024-03-06 2257 8414.5 003669991 COMMSTA Boston MA USA na FN41rp 5583 3469 289
2480523 2024-03-06 2250 2187.5 002761000 Undva MRCC Tallinn EST eu KO08xm 1290 801 49
2480516 2024-03-06 2203 2187.5 002470135 Trieste Radio ITA eu JN65vq 965 600 134
2480522 2024-03-06 2124 2187.5 002734417 Kaliningrad Radio KAL eu KO04ir 1086 675 68
2480517 2024-03-06 2002 2187.5 002570000 Public Correspondance NOR eu
2480511 2024-03-06 1923 2187.5 002275100 CROSS Gris Nez FRA eu JO00tu 264 164 239
2480529 2024-03-06 1918 8414.5 004122100 Shanghai Radio CHN as PM01sc 8908 5535 50
2480519 2024-03-06 1858 2187.5 002618102 Polish Rescue Radio POL eu JO84gn 820 510 65
2480515 2024-03-06 1841 2187.5 002470124 Crotone Radio ITA eu JM89nb 1730 1075 142
2480530 2024-03-06 1829 8414.5 264999908 CMU School ROU eu
2480510 2024-03-06 1816 2187.5 002241026 Las Palmas Radio CNR af IL27es 3196 1986 220
2480512 2024-03-06 1812 2187.5 002275300 CROSS Corsen FRA eu IN78ll 811 504 244
2480507 2024-03-06 1159 2187.5 002191000 Lyngby Radio DNK eu JO55rt 596 370 43
2480518 2024-03-06 0935 2187.5 002570100 Tjome Radio NOR eu JO59hk 890 553 21
2480505 2024-03-06 0934 2187.5 002050480 Oostende Radio BEL eu JO11ne 1000 158 98 230
2480520 2024-03-06 0853 2187.5 002653000 Goteborg Radio SWE eu JO57xl 750 466 34
2480508 2024-03-06 0718 2187.5 002241022 Coruna Radio ESP eu IN53si 1389 863 230
2480509 2024-03-06 0707 2187.5 002241024 Valencia Radio ESP eu IM98wr 1537 955 196
2480525 2024-03-06 0109 8414.5 002241024 Valencia Radio ESP eu IM98wr 1537 955 196
2480527 2024-03-06 0046 8414.5 002371000 Olympia Radio GRC eu KM07ro 2065 1283 134
2480526 2024-03-06 0040 8414.5 002241026 Las Palmas Radio CNR af IL27es 3196 1986 220
2480524 2024-03-06 0002 8414.5 002241022 Coruna Radio ESP eu IN53si 1389 863 230
2480095 2024-03-04 2346 2187.5 002733700 Saint Petersburg Radio RUS eu KO59cv 1782 1107 51
2480104 2024-03-04 2343 8414.5 003669991 COMMSTA Boston MA USA na FN41rp 5583 3469 289
2480090 2024-03-04 2334 2187.5 002570300 Rogaland Radio NOR eu JO28tp 729 453 3
2480105 2024-03-04 2328 8414.5 003669997 COMMSTA Miami FL USA na EL95to 7476 4645 282
2482836 2024-03-04 2322 303 KPG Sogndal / Haukasen / Kaupanger NOR eu JP31oe 1020 634 7
2480087 2024-03-04 2146 2187.5 002470124 Crotone Radio ITA eu JM89nb 1730 1075 142
2482839 2024-03-04 2122 389 PX Perigueux / Bassillac FRA eu JN05ke 25 823 511 202
2480092 2024-03-04 2037 2187.5 002630100 Lisboa Radio POR eu IM58iq 1850 1150 221
2482838 2024-03-04 2022 309 LG Satenas / Tune SWE eu JO68ik 860 534 31
2480093 2024-03-04 1958 2187.5 002652000 Stockholm Radio SWE eu JO99ig 1173 729 41
2480079 2024-03-04 1951 2187.5 002320009 Thames Radio ENG eu JO01pu 247 153 264
2482840 2024-03-04 1922 297 NA Miroslawiec POL eu JO83aj 764 475 74
2480068 2024-03-04 1846 2187.5 002240993 MRCC Finisterre ESP eu IN52mq 1472 915 230
2480106 2024-03-04 1836 8414.5 004122100 Shanghai Radio CHN as PM01sc 8908 5535 50
2480107 2024-03-04 1818 8414.5 004123100 Guangzhou Radio CHN as OL63rd 9175 5701 61
2480081 2024-03-04 1614 2187.5 002320011 Solent Radio ENG eu IO90xs 372 231 248
2480082 2024-03-04 1525 2187.5 002320014 Falmouth Radio ENG eu IN79jx 743 461 255
2480109 2024-03-04 1514 12577 002241026 Las Palmas Radio CNR af IL27es 3196 1986 220
2480108 2024-03-04 1118 12577 002241022 Coruna Radio ESP eu IN53si 1389 863 230
2480100 2024-03-04 0831 8414.5 002241024 Valencia Radio ESP eu IM98wr 1537 955 196
2480077 2024-03-04 0820 2187.5 002320004 Aberdeen Radio SCT eu IO87xd 715 444 324
2480072 2024-03-04 0702 2187.5 002275100 CROSS Gris Nez FRA eu JO00tu 264 164 239
2480074 2024-03-04 0613 2187.5 002275300 CROSS Corsen FRA eu IN78ll 811 504 244
2480085 2024-03-04 0603 2187.5 002470119 Ancona Radio ITA eu JN63sp 1139 708 142
2480088 2024-03-04 0603 2187.5 002470135 Trieste Radio ITA eu JN65vq 965 600 134
2480075 2024-03-04 0602 2187.5 002275400 CROSS La Garde FRA eu JN23xc 1004 624 174
2480111 2024-03-04 0553 12577 002711000 Istanbul Radio TUR as KN40jx 2192 1362 114
2480097 2024-03-04 0542 2187.5 002734417 Kaliningrad Radio KAL eu KO04ir 1086 675 68
2480110 2024-03-04 0521 12577 002371000 Olympia Radio GRC eu KM07ro 2065 1283 134
2480065 2024-03-04 0348 2187.5 002050480 Oostende Radio BEL eu JO11ne 1000 158 98 230
2480066 2024-03-04 0324 2187.5 002111240 Bremen Rescue Radio DEU eu JO43jb 250 285 177 66
2480098 2024-03-04 0305 8414.5 002091000 Cyprus Radio CYP as KM65pb 5000 2938 1826 118
2480076 2024-03-04 0240 2187.5 002320001 Shetland Radio (Lerwick) SHE eu IP90kd 967 601 339
2480080 2024-03-04 0229 2187.5 002320010 Dover Radio ENG eu JO01pd 269 167 248
2480078 2024-03-04 0201 2187.5 002320007 Humber Radio ENG eu IO94xc 396 246 306
2480103 2024-03-04 0159 8414.5 002711000 Istanbul Radio TUR as KN40jx 2192 1362 114
2480094 2024-03-04 0146 2187.5 002711000 Istanbul Radio TUR as KN40jx 2192 1362 114
2480091 2024-03-04 0113 2187.5 002618102 Polish Rescue Radio POL eu JO84gn 820 510 65
2480083 2024-03-04 0043 2187.5 002320017 Milford Haven Radio WLS eu IO71kq 687 427 270
2480084 2024-03-04 0032 2187.5 002371000 Olympia Radio GRC eu KM07ro 2065 1283 134
2480101 2024-03-04 0026 8414.5 002241026 Las Palmas Radio CNR af IL27es 3196 1986 220
2480073 2024-03-04 0023 2187.5 002275200 CROSS Jobourg FRA eu IN99bq 544 338 243
2480089 2024-03-04 0015 2187.5 002570000 Public Correspondance NOR eu
2480096 2024-03-04 0012 2187.5 002734411 Novorossiysk Radio RUS eu KN84uq 2535 1575 95
2480071 2024-03-04 0011 2187.5 002241026 Las Palmas Radio CNR af IL27es 3196 1986 220
2480086 2024-03-04 0009 2187.5 002470121 Bari Radio ITA eu JN81kc 1524 947 138
2480099 2024-03-04 0006 8414.5 002241022 Coruna Radio ESP eu IN53si 1389 863 230
2480070 2024-03-04 0005 2187.5 002241024 Valencia Radio ESP eu IM98wr 1537 955 196
2480067 2024-03-04 0004 2187.5 002191000 Lyngby Radio DNK eu JO55rt 596 370 43
2480102 2024-03-04 0003 8414.5 002371000 Olympia Radio GRC eu KM07ro 2065 1283 134
2480069 2024-03-04 0001 2187.5 002241022 Coruna Radio ESP eu IN53si 1389 863 230
2477462 2024-02-27 2117 2187.5 002734411 Novorossiysk Radio RUS eu KN84uq 2535 1575 95
2477463 2024-02-27 2028 2187.5 005671000 Bangkok Radio THA as OK03hn 9207 5721 77
2477460 2024-02-27 2026 2187.5 002711000 Istanbul Radio TUR as KN40jx 2192 1362 114
2477461 2024-02-27 1843 2187.5 002733700 Saint Petersburg Radio RUS eu KO59cv 1782 1107 51
2477459 2024-02-27 1632 2187.5 002311000 Torshavn Radio FRO eu IP61ox 1301 808 332
2477466 2024-02-27 1130 8414.5 002241026 Las Palmas Radio CNR af IL27es 3196 1986 220
2477468 2024-02-27 1112 8414.5 002570000 Public Correspondence NOR eu
2477465 2024-02-27 1106 8414.5 002241024 Valencia Radio ESP eu IM98wr 1537 955 196
2477473 2024-02-27 0958 8414.5 219055000 XPA6880 Skawskip DNK eu JO57gq 718 446 27
2477471 2024-02-27 0815 8414.5 003669998 COMMSTA New Orleans LA USA na EL59av 7739 4809 292
2477472 2024-02-27 0447 8414.5 007251860 Valparaiso Radio CHL sa FF46ew 12017 7467 239
2477470 2024-02-27 0404 8414.5 003669997 COMMSTA Miami FL USA na EL95to 7476 4645 282
2477469 2024-02-27 0339 8414.5 003669995 COMMSTA Portsmouth VA USA na FM16xr 6300 3914 288
2477467 2024-02-27 0306 8414.5 002371000 Olympia Radio GRC eu KM07ro 2065 1283 134
2477464 2024-02-27 0000 8414.5 002241022 Coruna Radio ESP eu IN53si 1389 863 230
2476313 2024-02-24 2320 12577 007251860 Valparaiso Radio CHL sa FF46ew 12017 7467 239
2476298 2024-02-24 2316 8414.5 003669995 COMMSTA Portsmouth VA USA na FM16xr 6300 3914 288
2476306 2024-02-24 2316 12577 003669995 COMMSTA Portsmouth VA USA na FM16xr 6300 3914 288
2476300 2024-02-24 2017 8414.5 004123100 Guangzhou Radio CHN as OL63rd 9175 5701 61
2476310 2024-02-24 2009 12577 005741040 Hai Phong Radio XVG VTN as OL30iu 8962 5569 67
2476297 2024-02-24 2007 8414.5 002711000 Istanbul Radio TUR as KN40jx 2192 1362 114
2476311 2024-02-24 1759 12577 006010001 Cape Town Radio AFS af JF96ii 9629 5983 168
2476307 2024-02-24 1729 12577 004123100 Guangzhou Radio CHN as OL63rd 9175 5701 61
2476308 2024-02-24 1701 12577 004162019 Chilung Keelung Radio TWN as PL05vd 9474 5886 54
2476302 2024-02-24 1220 12577 002241024 Valencia Radio ESP eu IM98wr 1537 955 196
2476309 2024-02-24 0759 12577 005030001 Charleville / Wiluna Radio WE AUS oc PG30gp 1000 14666 9113 85
2476303 2024-02-24 0732 12577 002241026 Las Palmas Radio CNR af IL27es 3196 1986 220
2476304 2024-02-24 0715 12577 002371000 Olympia Radio GRC eu KM07ro 2065 1283 134
2476301 2024-02-24 0640 12577 002241022 Coruna Radio ESP eu IN53si 1389 863 230
2478736 2024-02-24 0615 330 HN Hornafjordur ISL eu IP24jg 1778 1104 327
2478737 2024-02-24 0615 345 HL Vestmannaeyjar / Helgafell ISL eu HP93uk 15 1931 1200 320
2478739 2024-02-24 0615 392 KF Keflavik ISL eu HP83px 2064 1282 320
2478735 2024-02-24 0605 281 CA Cartwright NL CAN na GO13lr 1000 4022 2499 297
2478738 2024-02-24 0605 375 VM Vestmannaeyar ISL eu HP93uj 100 1928 1198 320
2476305 2024-02-24 0602 12577 002711000 Istanbul Radio TUR as KN40jx 2192 1362 114
2476312 2024-02-24 0239 12577 007100003 Manaus Radio BRA sa GI06av 8606 5347 247
2476299 2024-02-24 0121 8414.5 003669997 COMMSTA Miami FL USA na EL95to 7476 4645 282
2476295 2024-02-24 0057 8414.5 002241026 Las Palmas Radio CNR af IL27es 3196 1986 220
2476294 2024-02-24 0019 8414.5 002241024 Valencia Radio ESP eu IM98wr 1537 955 196
2476293 2024-02-24 0004 8414.5 002241022 Coruna Radio ESP eu IN53si 1389 863 230
2476296 2024-02-24 0003 8414.5 002371000 Olympia Radio GRC eu KM07ro 2065 1283 134
2475240 2024-02-22 1756 8414.5 004123100 Guangzhou Radio CHN as OL63rd 9175 5701 61
2475242 2024-02-22 1529 12577 004123100 Guangzhou Radio CHN as OL63rd 9175 5701 61
2475241 2024-02-22 1113 8414.5 228040600 Test ANFR SR Donges FRA eu IN87wi 729 453 226
2475245 2024-02-22 1110 12577 228040600 Test ANFR SR Donges FRA eu IN87wi 729 453 226
2475243 2024-02-22 0827 12577 005030001 Charleville / Wiluna Radio WE AUS oc PG30gp 1000 14666 9113 85
2475244 2024-02-22 0757 12577 005120010 Taupo Radio NI NZL oc RF81fd 18404 11435 27
2474997 2024-02-22 0522 8414.5 002040100 Ponta Delgada Radio AZR eu HM77dr 2857 1775 248
2474996 2024-02-22 0315 2187.5 003311000 Qaqortoq Radio GRL na GP51ex 3359 2087 310
2474964 2024-02-22 0206 2187.5 002275000 CROSS Etel FRA eu IN87jp 762 473 232
2474958 2024-02-22 0202 2187.5 002240993 MRCC Finisterre ESP eu IN52mq 1472 915 230
2474981 2024-02-22 0153 2187.5 002470122 Cagliari Radio SAR eu JM49nf 1468 912 165
2474969 2024-02-22 0036 2187.5 002320008 UK Coastguard ENG eu 222 138 285
2474986 2024-02-22 0013 2187.5 002570700 Bodoe Radio NOR eu JP77eg 1764 1096 13
2474982 2024-02-21 2311 2187.5 002470133 Porto Torres Radio ITA eu JN40dt 1282 797 166
2474983 2024-02-21 2303 2187.5 002510100 Reykjavik Radio ISL eu HP94bb 2032 1263 321
2474975 2024-02-21 2201 2187.5 002470119 Ancona Radio ITA eu JN63sp 1139 708 142
2474973 2024-02-21 2157 2187.5 002442000 Netherlands CG Radio HOL eu JO22dc 40 25 270
2475011 2024-02-21 2108 12577 003669991 COMMSTA Boston MA USA na FN41rp 5583 3469 289
2475004 2024-02-21 2106 8414.5 003669991 COMMSTA Boston MA USA na FN41rp 5583 3469 289
2474976 2024-02-21 2106 2187.5 002470120 Augusta Radio SCY eu JM77og 1836 1141 149
2475012 2024-02-21 2102 12577 003669995 COMMSTA Portsmouth VA USA na FM16xr 6300 3914 288
2474966 2024-02-21 1952 2187.5 002320004 Aberdeen Radio SCT eu IO87xd 715 444 324
2474990 2024-02-21 1950 2187.5 002652000 Stockholm Radio SWE eu JO99ig 1173 729 41
2475007 2024-02-21 1937 8414.5 005030001 Charleville / Wiluna Radio WE AUS oc PG30gp 14666 9113 85
2475005 2024-02-21 1757 8414.5 004123100 Guangzhou Radio CHN as OL63rd 9175 5701 61
2475006 2024-02-21 1724 8414.5 004162019 Chilung Keelung Radio TWN as PL05vd 9474 5886 54
2475013 2024-02-21 1618 12577 004123100 Guangzhou Radio CHN as OL63rd 9175 5701 61
2475002 2024-02-21 1324 8414.5 002570000 Public Correspondence NOR eu
2475000 2024-02-21 1317 8414.5 002241026 Las Palmas Radio CNR af IL27es 3196 1986 220
2475008 2024-02-21 0859 12577 002241022 Coruna Radio ESP eu IN53si 1389 863 230
2474962 2024-02-21 0833 2187.5 002275100 CROSS Gris Nez FRA eu JO00tu 264 164 239
2474971 2024-02-21 0809 2187.5 002320017 Milford Haven Radio WLS eu IO71kq 687 427 270
2474955 2024-02-21 0706 2187.5 002050480 Oostende Radio BEL eu JO11ne 1000 158 98 230
2475010 2024-02-21 0650 12577 002711000 Istanbul Radio TUR as KN40jx 2192 1362 114
2475009 2024-02-21 0635 12577 002371000 Olympia Radio GRC eu KM07ro 2065 1283 134
2474988 2024-02-21 0629 2187.5 002570500 Floroe Radio NOR eu JP21mn 1052 653 0
2474980 2024-02-21 0605 2187.5 002470125 Genova Radio ITA eu JN44lj 908 564 159
2474963 2024-02-21 0602 2187.5 002275400 CROSS La Garde FRA eu JN23xc 1004 624 174
2474978 2024-02-21 0602 2187.5 002470123 Civitavecchia Radio ITA eu JN52vc 1228 763 152
2474995 2024-02-21 0601 2187.5 002734417 Kaliningrad Radio KAL eu KO04ir 1086 675 68
2474985 2024-02-21 0556 2187.5 002570100 Tjome Radio NOR eu JO59hk 890 553 21
2474987 2024-02-21 0503 2187.5 002570300 Rogaland Radio NOR eu JO28tp 729 453 3
2474972 2024-02-21 0456 2187.5 002371000 Olympia Radio GRC eu KM07ro 2065 1283 134
2474965 2024-02-21 0440 2187.5 002320001 Shetland Radio (Lerwick) SHE eu IP90kd 967 601 339
2474956 2024-02-21 0419 2187.5 002111240 Bremen Rescue Radio DEU eu JO43jb 250 285 177 66
2474999 2024-02-21 0300 8414.5 002241024 Valencia Radio ESP eu IM98wr 1537 955 196
2474970 2024-02-21 0251 2187.5 002320014 Falmouth Radio ENG eu IN79jx 743 461 255
2474979 2024-02-21 0240 2187.5 002470124 Crotone Radio ITA eu JM89nb 1730 1075 142
2474993 2024-02-21 0232 2187.5 002733700 Saint Petersburg Radio RUS eu KO59cv 1782 1107 51
2474968 2024-02-21 0228 2187.5 002320010 Dover Radio ENG eu JO01pd 269 167 248
2474967 2024-02-21 0215 2187.5 002320007 Humber Radio ENG eu IO94xc 396 246 306
2474977 2024-02-21 0153 2187.5 002470121 Bari Radio ITA eu JN81kc 1524 947 138
2474957 2024-02-21 0055 2187.5 002191000 Lyngby Radio DNK eu JO55rt 596 370 43
2474961 2024-02-21 0050 2187.5 002241026 Las Palmas Radio CNR af IL27es 3196 1986 220
2475003 2024-02-21 0038 8414.5 002711000 Istanbul Radio TUR as KN40jx 2192 1362 114
2474974 2024-02-21 0029 2187.5 002470002 Palermo Radio SCY eu JM68ne 1675 1040 154
2474989 2024-02-21 0029 2187.5 002618102 Polish Rescue Radio POL eu JO84gn 820 510 65
2474984 2024-02-21 0026 2187.5 002570000 Public Correspondance NOR eu
2474994 2024-02-21 0022 2187.5 002734411 Novorossiysk Radio RUS eu KN84uq 2535 1575 95
2475001 2024-02-21 0012 8414.5 002371000 Olympia Radio GRC eu KM07ro 2065 1283 134
2474959 2024-02-21 0012 2187.5 002241022 Coruna Radio ESP eu IN53si 1389 863 230
2474991 2024-02-21 0011 2187.5 002653000 Goteborg Radio SWE eu JO57xl 750 466 34
2474960 2024-02-21 0006 2187.5 002241024 Valencia Radio ESP eu IM98wr 1537 955 196
2474992 2024-02-21 0004 2187.5 002711000 Istanbul Radio TUR as KN40jx 2192 1362 114
2474998 2024-02-21 0004 8414.5 002241022 Coruna Radio ESP eu IN53si 1389 863 230
2474067 2024-02-20 2352 2187.5 002711000 Istanbul Radio TUR as KN40jx 2192 1362 114
2474077 2024-02-20 2334 12577 007251860 Valparaiso Radio CHL sa FF46ew 12017 7467 239
2474068 2024-02-20 2233 2187.5 002733700 Saint Petersburg Radio RUS eu KO59cv 1782 1107 51
2474070 2024-02-20 2226 2187.5 002734487 Taganrog Radio RUS eu KN97le 2489 1547 89
2474072 2024-02-20 2043 12577 003669991 COMMSTA Boston MA USA na FN41rp 5583 3469 289
2474075 2024-02-20 1933 12577 005671000 Bangkok Radio THA as OK03hn 9207 5721 77
2474076 2024-02-20 1747 12577 006010001 Cape Town Radio AFS af JF96ii 9629 5983 168
2474073 2024-02-20 1508 12577 004123100 Guangzhou Radio CHN as OL63rd 9175 5701 61
2474074 2024-02-20 0708 12577 005030001 Charleville / Wiluna Radio WE AUS oc PG30gp 1000 14666 9113 85
2474069 2024-02-20 0608 2187.5 002734417 Kaliningrad Radio KAL eu KO04ir 1086 675 68
2474071 2024-02-20 0304 2187.5 003311000 Qaqortoq Radio GRL na GP51ex 3359 2087 310
2473697 2024-02-19 2256 2187.5 002733700 Saint Petersburg Radio RUS eu KO59cv 1782 1107 51
2473706 2024-02-19 2244 8414.5 003669995 COMMSTA Portsmouth VA USA na FM16xr 6300 3914 288
2473688 2024-02-19 2204 2187.5 002470135 Trieste Radio ITA eu JN65vq 965 600 134
2473683 2024-02-19 2203 2187.5 002470119 Ancona Radio ITA eu JN63sp 1139 708 142
2473693 2024-02-19 2124 2187.5 002570800 Vardo Radio NOR eu KQ50ni 2425 1507 23
2473676 2024-02-19 2053 2187.5 002320007 Humber Radio ENG eu IO94xc 396 246 306
2473708 2024-02-19 2026 8414.5 005030001 Charleville / Wiluna Radio WE AUS oc PG30gp 14666 9113 85
2473715 2024-02-19 2024 12577 003669997 COMMSTA Miami FL USA na EL95to 7476 4645 282
2473718 2024-02-19 1803 12577 006010001 Cape Town Radio AFS af JF96ii 9629 5983 168
2473707 2024-02-19 1709 8414.5 004123100 Guangzhou Radio CHN as OL63rd 9175 5701 61
2473716 2024-02-19 1642 12577 004123100 Guangzhou Radio CHN as OL63rd 9175 5701 61
2473710 2024-02-19 1211 12577 002241024 Valencia Radio ESP eu IM98wr 1537 955 196
2473711 2024-02-19 1200 12577 002241026 Las Palmas Radio CNR af IL27es 3196 1986 220
2473714 2024-02-19 1102 12577 003669991 COMMSTA Boston MA USA na FN41rp 5583 3469 289
2473717 2024-02-19 0822 12577 005030001 Charleville / Wiluna Radio WE AUS oc PG30gp 1000 14666 9113 85
2473670 2024-02-19 0703 2187.5 002275000 CROSS Etel FRA eu IN87jp 762 473 232
2473709 2024-02-19 0639 12577 002241022 Coruna Radio ESP eu IN53si 1389 863 230
2473698 2024-02-19 0615 2187.5 002734417 Kaliningrad Radio KAL eu KO04ir 1086 675 68
2473673 2024-02-19 0602 2187.5 002275400 CROSS La Garde FRA eu JN23xc 1004 624 174
2473674 2024-02-19 0546 2187.5 002320001 Shetland Radio (Lerwick) SHE eu IP90kd 967 601 339
2473690 2024-02-19 0504 2187.5 002510100 Reykjavik Radio ISL eu HP94bb 2032 1263 321
2473702 2024-02-19 0432 8414.5 002241024 Valencia Radio ESP eu IM98wr 1537 955 196
2473705 2024-02-19 0432 8414.5 002711000 Istanbul Radio TUR as KN40jx 2192 1362 114
2473696 2024-02-19 0423 2187.5 002711000 Istanbul Radio TUR as KN40jx 2192 1362 114
2473682 2024-02-19 0416 2187.5 002470002 Palermo Radio SCY eu JM68ne 1675 1040 154
2473689 2024-02-19 0414 2187.5 002500200 Valentia Radio IRL eu IO41tv 1042 648 274
2473684 2024-02-19 0334 2187.5 002470121 Bari Radio ITA eu JN81kc 1524 947 138
2473685 2024-02-19 0332 2187.5 002470124 Crotone Radio ITA eu JM89nb 1730 1075 142
2473713 2024-02-19 0326 12577 002711000 Istanbul Radio TUR as KN40jx 2192 1362 114
2473665 2024-02-19 0319 2187.5 002111240 Bremen Rescue Radio DEU eu JO43jb 250 285 177 66
2473678 2024-02-19 0319 2187.5 002320014 Falmouth Radio ENG eu IN79jx 743 461 255
2473692 2024-02-19 0316 2187.5 002570700 Bodoe Radio NOR eu JP77eg 1764 1096 13
2473699 2024-02-19 0313 2187.5 003311000 Qaqortoq Radio GRL na GP51ex 3359 2087 310
2473712 2024-02-19 0303 12577 002371000 Olympia Radio GRC eu KM07ro 2065 1283 134
2473680 2024-02-19 0300 2187.5 002320021 Belfast Radio NIR eu IO74eq 752 467 296
2473679 2024-02-19 0221 2187.5 002320017 Milford Haven Radio WLS eu IO71kq 687 427 270
2473672 2024-02-19 0217 2187.5 002275200 CROSS Jobourg FRA eu IN99bq 544 338 243
2473686 2024-02-19 0214 2187.5 002470125 Genova Radio ITA eu JN44lj 908 564 159
2473675 2024-02-19 0214 2187.5 002320004 Aberdeen Radio SCT eu IO87xd 715 444 324
2473691 2024-02-19 0141 2187.5 002570000 Public Correspondance NOR eu
2473687 2024-02-19 0127 2187.5 002470128 Mazara del Vallo Radio SCY eu JM67hq 1713 1064 156
2473671 2024-02-19 0113 2187.5 002275100 CROSS Gris Nez FRA eu JO00tu 264 164 239
2473666 2024-02-19 0104 2187.5 002191000 Lyngby Radio DNK eu JO55rt 596 370 43
2473703 2024-02-19 0104 8414.5 002241026 Las Palmas Radio CNR af IL27es 3196 1986 220
2473664 2024-02-19 0056 2187.5 002050480 Oostende Radio BEL eu JO11ne 1000 158 98 230
2473669 2024-02-19 0050 2187.5 002241026 Las Palmas Radio CNR af IL27es 3196 1986 220
2473700 2024-02-19 0021 8414.5 002091000 Cyprus Radio CYP as KM65pb 5000 2938 1826 118
2473668 2024-02-19 0018 2187.5 002241024 Valencia Radio ESP eu IM98wr 1537 955 196
2473681 2024-02-19 0012 2187.5 002371000 Olympia Radio GRC eu KM07ro 2065 1283 134
2473667 2024-02-19 0010 2187.5 002241022 Coruna Radio ESP eu IN53si 1389 863 230
2473677 2024-02-19 0009 2187.5 002320010 Dover Radio ENG eu JO01pd 269 167 248
2473694 2024-02-19 0008 2187.5 002618102 Polish Rescue Radio POL eu JO84gn 820 510 65
2473695 2024-02-19 0004 2187.5 002630100 Lisboa Radio POR eu IM58iq 1850 1150 221
2473704 2024-02-19 0004 8414.5 002371000 Olympia Radio GRC eu KM07ro 2065 1283 134
2473701 2024-02-19 0000 8414.5 002241022 Coruna Radio ESP eu IN53si 1389 863 230
2473161 2024-02-18 2140 2187.5 002470002 Palermo Radio SCY eu JM68ne 1675 1040 154
2473185 2024-02-18 2131 8414.5 004121100 Tianjin Radio CHN as OM89ra 7975 4955 49
2473191 2024-02-18 2053 12577 003669990 CAMSPAC Pt Reyes CA USA na CM87pw 8791 5462 320
2473186 2024-02-18 2000 8414.5 004123100 Guangzhou Radio CHN as OL63rd